sensor_id;sensor_type;location;lat;lon;timestamp;P1;durP1;ratioP1;P2;durP2;ratioP2
36191;SDS011;22233;42.708;23.360;2023-04-30T00:00:07;11.48;;;7.57;;
36191;SDS011;22233;42.708;23.360;2023-04-30T00:04:59;8.25;;;5.07;;
36191;SDS011;22233;42.708;23.360;2023-04-30T00:07:25;9.57;;;4.80;;
36191;SDS011;22233;42.708;23.360;2023-04-30T00:09:50;8.57;;;4.95;;
36191;SDS011;22233;42.708;23.360;2023-04-30T00:12:16;6.57;;;4.45;;
36191;SDS011;22233;42.708;23.360;2023-04-30T00:14:41;8.00;;;4.55;;
36191;SDS011;22233;42.708;23.360;2023-04-30T00:17:07;8.50;;;4.80;;
36191;SDS011;22233;42.708;23.360;2023-04-30T00:19:32;6.10;;;4.82;;
36191;SDS011;22233;42.708;23.360;2023-04-30T00:21:57;6.07;;;4.55;;
36191;SDS011;22233;42.708;23.360;2023-04-30T00:26:51;6.43;;;3.92;;
36191;SDS011;22233;42.708;23.360;2023-04-30T00:29:16;6.93;;;4.85;;
36191;SDS011;22233;42.708;23.360;2023-04-30T00:31:41;8.85;;;5.07;;
36191;SDS011;22233;42.708;23.360;2023-04-30T00:34:07;5.75;;;4.63;;
36191;SDS011;22233;42.708;23.360;2023-04-30T00:36:32;7.05;;;5.10;;
36191;SDS011;22233;42.708;23.360;2023-04-30T00:38:58;7.65;;;5.38;;
36191;SDS011;22233;42.708;23.360;2023-04-30T00:41:23;5.88;;;4.78;;
36191;SDS011;22233;42.708;23.360;2023-04-30T00:43:49;8.45;;;4.95;;
36191;SDS011;22233;42.708;23.360;2023-04-30T00:46:15;6.00;;;4.90;;
36191;SDS011;22233;42.708;23.360;2023-04-30T00:48:40;8.13;;;4.63;;
36191;SDS011;22233;42.708;23.360;2023-04-30T00:51:06;7.20;;;4.80;;
36191;SDS011;22233;42.708;23.360;2023-04-30T00:53:32;7.80;;;5.80;;
36191;SDS011;22233;42.708;23.360;2023-04-30T00:55:58;7.93;;;5.97;;
36191;SDS011;22233;42.708;23.360;2023-04-30T00:58:24;9.15;;;5.55;;
36191;SDS011;22233;42.708;23.360;2023-04-30T01:00:50;8.48;;;5.53;;
36191;SDS011;22233;42.708;23.360;2023-04-30T01:03:16;8.00;;;5.53;;
36191;SDS011;22233;42.708;23.360;2023-04-30T01:05:41;6.72;;;4.97;;
36191;SDS011;22233;42.708;23.360;2023-04-30T01:08:07;7.85;;;5.65;;
36191;SDS011;22233;42.708;23.360;2023-04-30T01:10:42;7.60;;;5.38;;
36191;SDS011;22233;42.708;23.360;2023-04-30T01:13:22;8.32;;;5.90;;
36191;SDS011;22233;42.708;23.360;2023-04-30T01:15:59;7.20;;;5.57;;
36191;SDS011;22233;42.708;23.360;2023-04-30T01:18:41;7.40;;;5.45;;
36191;SDS011;22233;42.708;23.360;2023-04-30T01:21:10;6.38;;;5.15;;
36191;SDS011;22233;42.708;23.360;2023-04-30T01:23:47;6.50;;;5.10;;
36191;SDS011;22233;42.708;23.360;2023-04-30T01:29:09;7.32;;;5.38;;
36191;SDS011;22233;42.708;23.360;2023-04-30T01:31:37;9.27;;;5.30;;
36191;SDS011;22233;42.708;23.360;2023-04-30T01:34:02;7.10;;;5.07;;
36191;SDS011;22233;42.708;23.360;2023-04-30T01:36:34;8.02;;;4.97;;
36191;SDS011;22233;42.708;23.360;2023-04-30T01:42:08;7.05;;;4.65;;
36191;SDS011;22233;42.708;23.360;2023-04-30T01:44:52;7.20;;;4.95;;
36191;SDS011;22233;42.708;23.360;2023-04-30T01:52:44;6.50;;;4.88;;
36191;SDS011;22233;42.708;23.360;2023-04-30T01:55:17;6.85;;;4.93;;
36191;SDS011;22233;42.708;23.360;2023-04-30T01:58:06;6.35;;;5.00;;
36191;SDS011;22233;42.708;23.360;2023-04-30T02:00:35;5.78;;;4.03;;
36191;SDS011;22233;42.708;23.360;2023-04-30T02:03:00;5.63;;;3.92;;
36191;SDS011;22233;42.708;23.360;2023-04-30T02:05:26;6.97;;;4.70;;
36191;SDS011;22233;42.708;23.360;2023-04-30T02:07:51;6.28;;;4.07;;
36191;SDS011;22233;42.708;23.360;2023-04-30T02:10:19;5.80;;;3.70;;
36191;SDS011;22233;42.708;23.360;2023-04-30T02:12:46;5.22;;;4.68;;
36191;SDS011;22233;42.708;23.360;2023-04-30T02:15:11;5.28;;;3.95;;
36191;SDS011;22233;42.708;23.360;2023-04-30T02:17:37;5.45;;;3.83;;
36191;SDS011;22233;42.708;23.360;2023-04-30T02:20:02;7.25;;;4.60;;
36191;SDS011;22233;42.708;23.360;2023-04-30T02:22:28;8.80;;;4.25;;
36191;SDS011;22233;42.708;23.360;2023-04-30T02:24:54;6.50;;;4.57;;
36191;SDS011;22233;42.708;23.360;2023-04-30T02:27:20;7.88;;;4.53;;
36191;SDS011;22233;42.708;23.360;2023-04-30T02:29:46;6.25;;;4.68;;
36191;SDS011;22233;42.708;23.360;2023-04-30T02:32:12;7.60;;;4.85;;
36191;SDS011;22233;42.708;23.360;2023-04-30T02:34:38;8.02;;;4.45;;
36191;SDS011;22233;42.708;23.360;2023-04-30T02:37:04;7.68;;;4.85;;
36191;SDS011;22233;42.708;23.360;2023-04-30T02:39:31;6.30;;;4.38;;
36191;SDS011;22233;42.708;23.360;2023-04-30T02:41:56;8.32;;;5.18;;
36191;SDS011;22233;42.708;23.360;2023-04-30T02:44:22;5.78;;;4.85;;
36191;SDS011;22233;42.708;23.360;2023-04-30T02:46:47;6.97;;;5.03;;
36191;SDS011;22233;42.708;23.360;2023-04-30T02:49:12;6.82;;;4.93;;
36191;SDS011;22233;42.708;23.360;2023-04-30T02:51:38;6.75;;;3.97;;
36191;SDS011;22233;42.708;23.360;2023-04-30T02:54:03;9.23;;;4.15;;
36191;SDS011;22233;42.708;23.360;2023-04-30T02:56:29;7.57;;;4.13;;
36191;SDS011;22233;42.708;23.360;2023-04-30T02:58:54;5.10;;;3.95;;
36191;SDS011;22233;42.708;23.360;2023-04-30T03:01:20;6.18;;;4.00;;
36191;SDS011;22233;42.708;23.360;2023-04-30T03:03:45;7.90;;;4.18;;
36191;SDS011;22233;42.708;23.360;2023-04-30T03:06:11;6.38;;;4.00;;
36191;SDS011;22233;42.708;23.360;2023-04-30T03:08:36;6.05;;;3.80;;
36191;SDS011;22233;42.708;23.360;2023-04-30T03:11:01;4.72;;;3.60;;
36191;SDS011;22233;42.708;23.360;2023-04-30T03:13:27;7.32;;;3.97;;
36191;SDS011;22233;42.708;23.360;2023-04-30T03:15:56;5.68;;;4.35;;
36191;SDS011;22233;42.708;23.360;2023-04-30T03:18:23;6.63;;;3.80;;
36191;SDS011;22233;42.708;23.360;2023-04-30T03:20:48;4.63;;;3.75;;
36191;SDS011;22233;42.708;23.360;2023-04-30T03:23:14;8.30;;;4.90;;
36191;SDS011;22233;42.708;23.360;2023-04-30T03:25:39;7.03;;;4.88;;
36191;SDS011;22233;42.708;23.360;2023-04-30T03:28:04;6.53;;;5.00;;
36191;SDS011;22233;42.708;23.360;2023-04-30T03:30:30;9.27;;;5.07;;
36191;SDS011;22233;42.708;23.360;2023-04-30T03:32:55;8.43;;;4.70;;
36191;SDS011;22233;42.708;23.360;2023-04-30T03:35:21;7.63;;;4.32;;
36191;SDS011;22233;42.708;23.360;2023-04-30T03:37:46;5.88;;;4.32;;
36191;SDS011;22233;42.708;23.360;2023-04-30T03:40:12;6.82;;;4.75;;
36191;SDS011;22233;42.708;23.360;2023-04-30T03:42:37;8.48;;;5.05;;
36191;SDS011;22233;42.708;23.360;2023-04-30T03:45:03;5.80;;;4.43;;
36191;SDS011;22233;42.708;23.360;2023-04-30T03:47:29;9.48;;;4.82;;
36191;SDS011;22233;42.708;23.360;2023-04-30T03:49:54;8.82;;;5.70;;
36191;SDS011;22233;42.708;23.360;2023-04-30T03:52:20;9.18;;;4.85;;
36191;SDS011;22233;42.708;23.360;2023-04-30T03:54:46;8.50;;;5.43;;
36191;SDS011;22233;42.708;23.360;2023-04-30T03:57:11;8.63;;;5.63;;
36191;SDS011;22233;42.708;23.360;2023-04-30T03:59:38;12.50;;;7.30;;
36191;SDS011;22233;42.708;23.360;2023-04-30T04:02:04;11.68;;;6.80;;
36191;SDS011;22233;42.708;23.360;2023-04-30T04:04:30;8.90;;;6.45;;
36191;SDS011;22233;42.708;23.360;2023-04-30T04:06:56;10.43;;;7.30;;
36191;SDS011;22233;42.708;23.360;2023-04-30T04:09:21;11.65;;;6.32;;
36191;SDS011;22233;42.708;23.360;2023-04-30T04:11:47;11.52;;;7.00;;
36191;SDS011;22233;42.708;23.360;2023-04-30T04:14:13;8.13;;;5.88;;
36191;SDS011;22233;42.708;23.360;2023-04-30T04:16:38;10.48;;;6.45;;
36191;SDS011;22233;42.708;23.360;2023-04-30T04:19:03;12.55;;;6.43;;
36191;SDS011;22233;42.708;23.360;2023-04-30T04:21:29;9.15;;;6.47;;
36191;SDS011;22233;42.708;23.360;2023-04-30T04:23:55;9.50;;;5.70;;
36191;SDS011;22233;42.708;23.360;2023-04-30T04:26:20;14.35;;;7.10;;
36191;SDS011;22233;42.708;23.360;2023-04-30T04:28:49;12.13;;;6.97;;
36191;SDS011;22233;42.708;23.360;2023-04-30T04:31:15;11.50;;;6.57;;
36191;SDS011;22233;42.708;23.360;2023-04-30T04:33:41;16.60;;;6.82;;
36191;SDS011;22233;42.708;23.360;2023-04-30T04:36:07;11.70;;;6.82;;
36191;SDS011;22233;42.708;23.360;2023-04-30T04:38:32;9.60;;;6.15;;
36191;SDS011;22233;42.708;23.360;2023-04-30T04:40:58;9.32;;;6.45;;
36191;SDS011;22233;42.708;23.360;2023-04-30T04:43:23;12.05;;;7.15;;
36191;SDS011;22233;42.708;23.360;2023-04-30T04:45:49;12.07;;;9.88;;
36191;SDS011;22233;42.708;23.360;2023-04-30T04:48:14;10.98;;;8.35;;
36191;SDS011;22233;42.708;23.360;2023-04-30T04:50:40;10.80;;;7.80;;
36191;SDS011;22233;42.708;23.360;2023-04-30T04:53:05;11.82;;;6.82;;
36191;SDS011;22233;42.708;23.360;2023-04-30T04:55:30;9.82;;;6.70;;
36191;SDS011;22233;42.708;23.360;2023-04-30T04:57:56;11.80;;;6.97;;
36191;SDS011;22233;42.708;23.360;2023-04-30T05:00:21;12.02;;;6.53;;
36191;SDS011;22233;42.708;23.360;2023-04-30T05:02:47;8.70;;;6.68;;
36191;SDS011;22233;42.708;23.360;2023-04-30T05:05:14;14.43;;;7.28;;
36191;SDS011;22233;42.708;23.360;2023-04-30T05:07:39;13.38;;;7.80;;
36191;SDS011;22233;42.708;23.360;2023-04-30T05:10:05;14.68;;;8.05;;
36191;SDS011;22233;42.708;23.360;2023-04-30T05:12:32;12.32;;;7.90;;
36191;SDS011;22233;42.708;23.360;2023-04-30T05:14:57;10.15;;;7.80;;
36191;SDS011;22233;42.708;23.360;2023-04-30T05:17:23;12.00;;;7.35;;
36191;SDS011;22233;42.708;23.360;2023-04-30T05:19:48;8.80;;;6.50;;
36191;SDS011;22233;42.708;23.360;2023-04-30T05:22:14;11.02;;;6.85;;
36191;SDS011;22233;42.708;23.360;2023-04-30T05:24:40;16.13;;;8.15;;
36191;SDS011;22233;42.708;23.360;2023-04-30T05:27:06;12.38;;;7.72;;
36191;SDS011;22233;42.708;23.360;2023-04-30T05:29:32;11.70;;;7.82;;
36191;SDS011;22233;42.708;23.360;2023-04-30T05:31:57;15.13;;;8.15;;
36191;SDS011;22233;42.708;23.360;2023-04-30T05:34:22;15.10;;;8.93;;
36191;SDS011;22233;42.708;23.360;2023-04-30T05:36:48;12.75;;;8.45;;
36191;SDS011;22233;42.708;23.360;2023-04-30T05:39:13;14.40;;;8.82;;
36191;SDS011;22233;42.708;23.360;2023-04-30T05:41:39;15.30;;;8.73;;
36191;SDS011;22233;42.708;23.360;2023-04-30T05:44:04;12.77;;;8.93;;
36191;SDS011;22233;42.708;23.360;2023-04-30T05:46:30;15.82;;;9.68;;
36191;SDS011;22233;42.708;23.360;2023-04-30T05:48:56;12.23;;;8.77;;
36191;SDS011;22233;42.708;23.360;2023-04-30T05:51:21;22.02;;;9.18;;
36191;SDS011;22233;42.708;23.360;2023-04-30T05:53:47;12.77;;;9.05;;
36191;SDS011;22233;42.708;23.360;2023-04-30T05:56:12;18.77;;;10.27;;
36191;SDS011;22233;42.708;23.360;2023-04-30T05:58:38;12.30;;;9.50;;
36191;SDS011;22233;42.708;23.360;2023-04-30T06:01:03;15.10;;;10.60;;
36191;SDS011;22233;42.708;23.360;2023-04-30T06:03:29;15.35;;;11.40;;
36191;SDS011;22233;42.708;23.360;2023-04-30T06:05:55;17.77;;;12.80;;
36191;SDS011;22233;42.708;23.360;2023-04-30T06:08:21;18.98;;;14.10;;
36191;SDS011;22233;42.708;23.360;2023-04-30T06:10:46;19.27;;;14.85;;
36191;SDS011;22233;42.708;23.360;2023-04-30T06:13:12;20.17;;;13.43;;
36191;SDS011;22233;42.708;23.360;2023-04-30T06:15:39;15.00;;;11.48;;
36191;SDS011;22233;42.708;23.360;2023-04-30T06:18:05;16.80;;;11.87;;
36191;SDS011;22233;42.708;23.360;2023-04-30T06:20:31;18.60;;;13.43;;
36191;SDS011;22233;42.708;23.360;2023-04-30T06:22:56;25.77;;;15.45;;
36191;SDS011;22233;42.708;23.360;2023-04-30T06:25:22;32.80;;;22.10;;
36191;SDS011;22233;42.708;23.360;2023-04-30T06:27:47;47.08;;;28.95;;
36191;SDS011;22233;42.708;23.360;2023-04-30T06:30:13;56.33;;;27.98;;
36191;SDS011;22233;42.708;23.360;2023-04-30T06:32:38;37.13;;;22.35;;
36191;SDS011;22233;42.708;23.360;2023-04-30T06:35:05;19.52;;;13.20;;
36191;SDS011;22233;42.708;23.360;2023-04-30T06:37:31;17.63;;;10.93;;
36191;SDS011;22233;42.708;23.360;2023-04-30T06:40:01;23.15;;;11.30;;
36191;SDS011;22233;42.708;23.360;2023-04-30T06:42:30;20.35;;;11.63;;
36191;SDS011;22233;42.708;23.360;2023-04-30T06:45:02;27.95;;;12.57;;
36191;SDS011;22233;42.708;23.360;2023-04-30T06:47:29;16.25;;;9.10;;
36191;SDS011;22233;42.708;23.360;2023-04-30T06:49:59;11.63;;;7.60;;
36191;SDS011;22233;42.708;23.360;2023-04-30T06:52:25;10.80;;;6.80;;
36191;SDS011;22233;42.708;23.360;2023-04-30T06:54:50;12.52;;;6.63;;
36191;SDS011;22233;42.708;23.360;2023-04-30T06:57:16;9.65;;;6.10;;
36191;SDS011;22233;42.708;23.360;2023-04-30T06:59:41;10.13;;;6.55;;
36191;SDS011;22233;42.708;23.360;2023-04-30T07:02:07;10.38;;;5.97;;
36191;SDS011;22233;42.708;23.360;2023-04-30T07:04:32;11.32;;;6.80;;
36191;SDS011;22233;42.708;23.360;2023-04-30T07:06:57;16.88;;;7.40;;
36191;SDS011;22233;42.708;23.360;2023-04-30T07:09:26;12.02;;;7.45;;
36191;SDS011;22233;42.708;23.360;2023-04-30T07:11:54;14.02;;;7.07;;
36191;SDS011;22233;42.708;23.360;2023-04-30T07:14:21;13.18;;;6.70;;
36191;SDS011;22233;42.708;23.360;2023-04-30T07:16:48;11.38;;;7.00;;
36191;SDS011;22233;42.708;23.360;2023-04-30T07:21:39;10.38;;;6.80;;
36191;SDS011;22233;42.708;23.360;2023-04-30T07:24:05;10.27;;;7.05;;
36191;SDS011;22233;42.708;23.360;2023-04-30T07:26:30;13.30;;;7.75;;
36191;SDS011;22233;42.708;23.360;2023-04-30T07:28:56;14.10;;;7.70;;
36191;SDS011;22233;42.708;23.360;2023-04-30T07:31:21;10.13;;;7.07;;
36191;SDS011;22233;42.708;23.360;2023-04-30T07:33:46;9.20;;;7.13;;
36191;SDS011;22233;42.708;23.360;2023-04-30T07:36:14;9.50;;;7.30;;
36191;SDS011;22233;42.708;23.360;2023-04-30T07:38:39;9.10;;;6.95;;
36191;SDS011;22233;42.708;23.360;2023-04-30T07:41:05;13.07;;;8.55;;
36191;SDS011;22233;42.708;23.360;2023-04-30T07:43:30;10.73;;;7.25;;
36191;SDS011;22233;42.708;23.360;2023-04-30T07:45:55;11.77;;;7.90;;
36191;SDS011;22233;42.708;23.360;2023-04-30T07:48:21;10.10;;;7.43;;
36191;SDS011;22233;42.708;23.360;2023-04-30T07:50:47;10.27;;;7.18;;
36191;SDS011;22233;42.708;23.360;2023-04-30T07:53:12;10.50;;;6.60;;
36191;SDS011;22233;42.708;23.360;2023-04-30T07:55:38;11.15;;;6.13;;
36191;SDS011;22233;42.708;23.360;2023-04-30T07:58:03;10.10;;;5.93;;
36191;SDS011;22233;42.708;23.360;2023-04-30T08:00:29;10.70;;;6.10;;
36191;SDS011;22233;42.708;23.360;2023-04-30T08:02:55;11.65;;;5.35;;
36191;SDS011;22233;42.708;23.360;2023-04-30T08:05:21;8.25;;;5.35;;
36191;SDS011;22233;42.708;23.360;2023-04-30T08:07:47;12.20;;;4.38;;
36191;SDS011;22233;42.708;23.360;2023-04-30T08:10:12;7.22;;;4.40;;
36191;SDS011;22233;42.708;23.360;2023-04-30T08:12:37;6.13;;;4.25;;
36191;SDS011;22233;42.708;23.360;2023-04-30T08:15:03;8.55;;;4.47;;
36191;SDS011;22233;42.708;23.360;2023-04-30T08:17:33;8.82;;;4.57;;
36191;SDS011;22233;42.708;23.360;2023-04-30T08:19:59;7.35;;;5.72;;
36191;SDS011;22233;42.708;23.360;2023-04-30T08:22:26;11.40;;;4.72;;
36191;SDS011;22233;42.708;23.360;2023-04-30T08:24:51;7.28;;;3.92;;
36191;SDS011;22233;42.708;23.360;2023-04-30T08:27:17;11.30;;;4.68;;
36191;SDS011;22233;42.708;23.360;2023-04-30T08:29:42;7.50;;;4.22;;
36191;SDS011;22233;42.708;23.360;2023-04-30T08:32:08;7.22;;;4.65;;
36191;SDS011;22233;42.708;23.360;2023-04-30T08:34:33;7.70;;;4.10;;
36191;SDS011;22233;42.708;23.360;2023-04-30T08:36:59;6.45;;;3.42;;
36191;SDS011;22233;42.708;23.360;2023-04-30T08:39:25;5.65;;;3.60;;
36191;SDS011;22233;42.708;23.360;2023-04-30T08:41:53;6.22;;;3.45;;
36191;SDS011;22233;42.708;23.360;2023-04-30T08:44:23;6.35;;;3.55;;
36191;SDS011;22233;42.708;23.360;2023-04-30T08:46:52;8.57;;;3.30;;
36191;SDS011;22233;42.708;23.360;2023-04-30T08:49:22;7.05;;;3.90;;
36191;SDS011;22233;42.708;23.360;2023-04-30T08:51:49;4.13;;;3.50;;
36191;SDS011;22233;42.708;23.360;2023-04-30T08:54:15;4.43;;;3.15;;
36191;SDS011;22233;42.708;23.360;2023-04-30T08:56:44;5.18;;;2.95;;
36191;SDS011;22233;42.708;23.360;2023-04-30T08:59:10;4.45;;;3.50;;
36191;SDS011;22233;42.708;23.360;2023-04-30T09:01:36;4.68;;;2.58;;
36191;SDS011;22233;42.708;23.360;2023-04-30T09:04:02;5.45;;;2.60;;
36191;SDS011;22233;42.708;23.360;2023-04-30T09:06:28;3.35;;;2.88;;
36191;SDS011;22233;42.708;23.360;2023-04-30T09:08:55;3.47;;;2.70;;
36191;SDS011;22233;42.708;23.360;2023-04-30T09:11:25;4.72;;;3.00;;
36191;SDS011;22233;42.708;23.360;2023-04-30T09:13:55;4.57;;;2.60;;
36191;SDS011;22233;42.708;23.360;2023-04-30T09:16:23;3.20;;;2.80;;
36191;SDS011;22233;42.708;23.360;2023-04-30T09:18:50;4.97;;;3.38;;
36191;SDS011;22233;42.708;23.360;2023-04-30T09:21:16;4.75;;;2.75;;
36191;SDS011;22233;42.708;23.360;2023-04-30T09:23:59;3.58;;;2.50;;
36191;SDS011;22233;42.708;23.360;2023-04-30T09:26:30;4.88;;;2.83;;
36191;SDS011;22233;42.708;23.360;2023-04-30T09:28:58;5.60;;;2.90;;
36191;SDS011;22233;42.708;23.360;2023-04-30T09:31:24;4.20;;;2.43;;
36191;SDS011;22233;42.708;23.360;2023-04-30T09:33:52;4.82;;;2.63;;
36191;SDS011;22233;42.708;23.360;2023-04-30T09:36:18;4.93;;;3.28;;
36191;SDS011;22233;42.708;23.360;2023-04-30T09:38:44;4.35;;;2.80;;
36191;SDS011;22233;42.708;23.360;2023-04-30T09:41:26;4.43;;;2.70;;
36191;SDS011;22233;42.708;23.360;2023-04-30T09:43:53;4.40;;;2.53;;
36191;SDS011;22233;42.708;23.360;2023-04-30T09:46:19;4.07;;;2.63;;
36191;SDS011;22233;42.708;23.360;2023-04-30T09:48:46;6.18;;;2.88;;
36191;SDS011;22233;42.708;23.360;2023-04-30T09:51:13;3.63;;;3.28;;
36191;SDS011;22233;42.708;23.360;2023-04-30T09:53:42;3.65;;;2.47;;
36191;SDS011;22233;42.708;23.360;2023-04-30T09:56:08;4.30;;;2.42;;
36191;SDS011;22233;42.708;23.360;2023-04-30T09:58:37;4.00;;;2.50;;
36191;SDS011;22233;42.708;23.360;2023-04-30T10:01:05;2.95;;;2.67;;
36191;SDS011;22233;42.708;23.360;2023-04-30T10:03:35;3.63;;;3.05;;
36191;SDS011;22233;42.708;23.360;2023-04-30T10:06:04;7.28;;;4.25;;
36191;SDS011;22233;42.708;23.360;2023-04-30T10:08:33;3.05;;;2.40;;
36191;SDS011;22233;42.708;23.360;2023-04-30T10:11:06;4.22;;;2.50;;
36191;SDS011;22233;42.708;23.360;2023-04-30T10:13:34;2.80;;;2.53;;
36191;SDS011;22233;42.708;23.360;2023-04-30T10:18:50;2.20;;;2.00;;
36191;SDS011;22233;42.708;23.360;2023-04-30T10:21:17;4.63;;;2.53;;
36191;SDS011;22233;42.708;23.360;2023-04-30T10:23:45;3.72;;;2.22;;
36191;SDS011;22233;42.708;23.360;2023-04-30T10:26:11;3.80;;;2.43;;
36191;SDS011;22233;42.708;23.360;2023-04-30T10:28:40;4.68;;;2.63;;
36191;SDS011;22233;42.708;23.360;2023-04-30T10:31:06;3.10;;;2.60;;
36191;SDS011;22233;42.708;23.360;2023-04-30T10:33:43;4.00;;;2.30;;
36191;SDS011;22233;42.708;23.360;2023-04-30T10:36:17;3.67;;;2.03;;
36191;SDS011;22233;42.708;23.360;2023-04-30T10:38:48;1.70;;;1.60;;
36191;SDS011;22233;42.708;23.360;2023-04-30T10:41:14;2.78;;;1.88;;
36191;SDS011;22233;42.708;23.360;2023-04-30T10:43:43;2.13;;;1.67;;
36191;SDS011;22233;42.708;23.360;2023-04-30T10:48:36;2.13;;;1.77;;
36191;SDS011;22233;42.708;23.360;2023-04-30T10:51:02;1.85;;;1.73;;
36191;SDS011;22233;42.708;23.360;2023-04-30T10:53:31;1.85;;;1.55;;
36191;SDS011;22233;42.708;23.360;2023-04-30T10:58:31;1.83;;;1.73;;
36191;SDS011;22233;42.708;23.360;2023-04-30T11:03:42;2.25;;;1.52;;
36191;SDS011;22233;42.708;23.360;2023-04-30T11:06:28;2.00;;;1.50;;
36191;SDS011;22233;42.708;23.360;2023-04-30T11:09:14;5.47;;;1.85;;
36191;SDS011;22233;42.708;23.360;2023-04-30T11:11:41;1.60;;;1.50;;
36191;SDS011;22233;42.708;23.360;2023-04-30T11:14:18;1.77;;;1.27;;
36191;SDS011;22233;42.708;23.360;2023-04-30T11:16:47;1.60;;;1.40;;
36191;SDS011;22233;42.708;23.360;2023-04-30T11:19:14;1.80;;;1.40;;
36191;SDS011;22233;42.708;23.360;2023-04-30T11:21:40;2.00;;;1.75;;
36191;SDS011;22233;42.708;23.360;2023-04-30T11:24:06;1.65;;;1.42;;
36191;SDS011;22233;42.708;23.360;2023-04-30T11:29:32;1.95;;;1.67;;
36191;SDS011;22233;42.708;23.360;2023-04-30T11:32:03;2.00;;;1.70;;
36191;SDS011;22233;42.708;23.360;2023-04-30T11:34:29;3.88;;;1.77;;
36191;SDS011;22233;42.708;23.360;2023-04-30T11:36:57;3.53;;;2.30;;
36191;SDS011;22233;42.708;23.360;2023-04-30T11:39:25;4.15;;;2.10;;
36191;SDS011;22233;42.708;23.360;2023-04-30T11:41:52;2.20;;;2.00;;
36191;SDS011;22233;42.708;23.360;2023-04-30T11:44:21;2.67;;;2.03;;
36191;SDS011;22233;42.708;23.360;2023-04-30T11:46:49;2.53;;;2.13;;
36191;SDS011;22233;42.708;23.360;2023-04-30T11:49:15;3.50;;;2.58;;
36191;SDS011;22233;42.708;23.360;2023-04-30T11:51:41;2.63;;;2.40;;
36191;SDS011;22233;42.708;23.360;2023-04-30T11:54:07;2.20;;;2.00;;
36191;SDS011;22233;42.708;23.360;2023-04-30T11:56:34;7.07;;;3.30;;
36191;SDS011;22233;42.708;23.360;2023-04-30T11:59:07;2.95;;;2.30;;
36191;SDS011;22233;42.708;23.360;2023-04-30T12:01:34;3.30;;;2.25;;
36191;SDS011;22233;42.708;23.360;2023-04-30T12:04:00;3.50;;;2.40;;
36191;SDS011;22233;42.708;23.360;2023-04-30T12:06:28;2.50;;;2.30;;
36191;SDS011;22233;42.708;23.360;2023-04-30T12:08:55;3.95;;;2.53;;
36191;SDS011;22233;42.708;23.360;2023-04-30T12:11:25;4.13;;;2.42;;
36191;SDS011;22233;42.708;23.360;2023-04-30T12:13:59;2.42;;;2.00;;
36191;SDS011;22233;42.708;23.360;2023-04-30T12:17:04;2.83;;;2.38;;
36191;SDS011;22233;42.708;23.360;2023-04-30T12:19:24;2.20;;;2.00;;
36191;SDS011;22233;42.708;23.360;2023-04-30T12:21:49;3.80;;;2.63;;
36191;SDS011;22233;42.708;23.360;2023-04-30T12:24:16;3.15;;;2.50;;
36191;SDS011;22233;42.708;23.360;2023-04-30T12:26:43;4.40;;;2.38;;
36191;SDS011;22233;42.708;23.360;2023-04-30T12:29:09;3.38;;;2.33;;
36191;SDS011;22233;42.708;23.360;2023-04-30T12:31:42;2.30;;;2.08;;
36191;SDS011;22233;42.708;23.360;2023-04-30T12:34:10;2.15;;;1.60;;
36191;SDS011;22233;42.708;23.360;2023-04-30T12:36:37;5.13;;;2.45;;
36191;SDS011;22233;42.708;23.360;2023-04-30T12:39:07;1.60;;;1.50;;
36191;SDS011;22233;42.708;23.360;2023-04-30T12:41:35;3.80;;;1.70;;
36191;SDS011;22233;42.708;23.360;2023-04-30T12:44:14;2.35;;;2.15;;
36191;SDS011;22233;42.708;23.360;2023-04-30T12:46:40;1.70;;;1.60;;
36191;SDS011;22233;42.708;23.360;2023-04-30T12:49:06;4.10;;;2.33;;
36191;SDS011;22233;42.708;23.360;2023-04-30T12:51:33;2.10;;;1.90;;
36191;SDS011;22233;42.708;23.360;2023-04-30T12:56:25;3.90;;;2.50;;
36191;SDS011;22233;42.708;23.360;2023-04-30T12:58:50;2.85;;;2.20;;
36191;SDS011;22233;42.708;23.360;2023-04-30T13:01:17;2.35;;;2.08;;
36191;SDS011;22233;42.708;23.360;2023-04-30T13:03:45;3.95;;;2.53;;
36191;SDS011;22233;42.708;23.360;2023-04-30T13:06:10;2.97;;;2.53;;
36191;SDS011;22233;42.708;23.360;2023-04-30T13:08:36;4.50;;;1.90;;
36191;SDS011;22233;42.708;23.360;2023-04-30T13:11:01;2.50;;;2.30;;
36191;SDS011;22233;42.708;23.360;2023-04-30T13:13:28;5.03;;;2.25;;
36191;SDS011;22233;42.708;23.360;2023-04-30T13:15:53;3.20;;;2.55;;
36191;SDS011;22233;42.708;23.360;2023-04-30T13:18:19;4.90;;;2.90;;
36191;SDS011;22233;42.708;23.360;2023-04-30T13:20:45;4.18;;;2.63;;
36191;SDS011;22233;42.708;23.360;2023-04-30T13:23:10;3.45;;;2.70;;
36191;SDS011;22233;42.708;23.360;2023-04-30T13:25:37;4.10;;;2.92;;
36191;SDS011;22233;42.708;23.360;2023-04-30T13:28:03;5.75;;;2.83;;
36191;SDS011;22233;42.708;23.360;2023-04-30T13:30:29;6.32;;;3.65;;
36191;SDS011;22233;42.708;23.360;2023-04-30T13:32:54;5.05;;;2.97;;
36191;SDS011;22233;42.708;23.360;2023-04-30T13:35:20;5.85;;;3.08;;
36191;SDS011;22233;42.708;23.360;2023-04-30T13:37:45;3.90;;;2.53;;
36191;SDS011;22233;42.708;23.360;2023-04-30T13:40:13;3.38;;;2.50;;
36191;SDS011;22233;42.708;23.360;2023-04-30T13:42:39;2.72;;;2.05;;
36191;SDS011;22233;42.708;23.360;2023-04-30T13:45:06;2.88;;;2.58;;
36191;SDS011;22233;42.708;23.360;2023-04-30T13:47:33;2.25;;;1.95;;
36191;SDS011;22233;42.708;23.360;2023-04-30T13:49:59;2.80;;;2.08;;
36191;SDS011;22233;42.708;23.360;2023-04-30T13:52:25;3.10;;;2.10;;
36191;SDS011;22233;42.708;23.360;2023-04-30T13:54:50;4.15;;;2.05;;
36191;SDS011;22233;42.708;23.360;2023-04-30T13:57:17;2.40;;;2.00;;
36191;SDS011;22233;42.708;23.360;2023-04-30T13:59:42;1.98;;;1.67;;
36191;SDS011;22233;42.708;23.360;2023-04-30T14:02:08;6.43;;;2.17;;
36191;SDS011;22233;42.708;23.360;2023-04-30T14:04:33;1.85;;;1.70;;
36191;SDS011;22233;42.708;23.360;2023-04-30T14:07:00;4.65;;;2.13;;
36191;SDS011;22233;42.708;23.360;2023-04-30T14:09:25;2.72;;;2.00;;
36191;SDS011;22233;42.708;23.360;2023-04-30T14:11:51;2.50;;;2.03;;
36191;SDS011;22233;42.708;23.360;2023-04-30T14:14:16;2.92;;;2.20;;
36191;SDS011;22233;42.708;23.360;2023-04-30T14:16:42;2.50;;;1.80;;
36191;SDS011;22233;42.708;23.360;2023-04-30T14:19:08;3.40;;;3.10;;
36191;SDS011;22233;42.708;23.360;2023-04-30T14:21:34;4.07;;;2.88;;
36191;SDS011;22233;42.708;23.360;2023-04-30T14:24:00;4.38;;;1.95;;
36191;SDS011;22233;42.708;23.360;2023-04-30T14:26:25;3.40;;;3.00;;
36191;SDS011;22233;42.708;23.360;2023-04-30T14:28:51;4.10;;;2.15;;
36191;SDS011;22233;42.708;23.360;2023-04-30T14:31:16;1.85;;;1.50;;
36191;SDS011;22233;42.708;23.360;2023-04-30T14:33:42;3.20;;;2.30;;
36191;SDS011;22233;42.708;23.360;2023-04-30T14:36:07;6.63;;;2.97;;
36191;SDS011;22233;42.708;23.360;2023-04-30T14:38:33;3.92;;;2.38;;
36191;SDS011;22233;42.708;23.360;2023-04-30T14:40:58;3.47;;;2.47;;
36191;SDS011;22233;42.708;23.360;2023-04-30T14:43:24;6.10;;;2.35;;
36191;SDS011;22233;42.708;23.360;2023-04-30T14:45:50;2.85;;;1.85;;
36191;SDS011;22233;42.708;23.360;2023-04-30T14:48:16;3.47;;;2.20;;
36191;SDS011;22233;42.708;23.360;2023-04-30T14:50:42;4.57;;;2.15;;
36191;SDS011;22233;42.708;23.360;2023-04-30T14:53:08;2.90;;;1.97;;
36191;SDS011;22233;42.708;23.360;2023-04-30T14:55:35;2.45;;;1.70;;
36191;SDS011;22233;42.708;23.360;2023-04-30T14:58:01;5.72;;;1.63;;
36191;SDS011;22233;42.708;23.360;2023-04-30T15:00:26;2.92;;;1.90;;
36191;SDS011;22233;42.708;23.360;2023-04-30T15:02:53;1.87;;;1.70;;